sensor_id;sensor_type;location;lat;lon;timestamp;temperature;humidity
6948;DHT22;3513;47.664;9.162;2023-08-01T00:01:50;19.80;92.80
6948;DHT22;3513;47.664;9.162;2023-08-01T00:04:15;19.80;93.30
6948;DHT22;3513;47.664;9.162;2023-08-01T00:06:41;19.80;94.20
6948;DHT22;3513;47.664;9.162;2023-08-01T00:09:07;19.70;94.70
6948;DHT22;3513;47.664;9.162;2023-08-01T00:11:33;19.60;95.80
6948;DHT22;3513;47.664;9.162;2023-08-01T00:13:58;19.60;96.00
6948;DHT22;3513;47.664;9.162;2023-08-01T00:16:24;19.60;96.50
6948;DHT22;3513;47.664;9.162;2023-08-01T00:18:49;19.50;97.00
6948;DHT22;3513;47.664;9.162;2023-08-01T00:21:15;19.50;97.00
6948;DHT22;3513;47.664;9.162;2023-08-01T00:23:41;19.50;97.30
6948;DHT22;3513;47.664;9.162;2023-08-01T00:26:06;19.40;97.60
6948;DHT22;3513;47.664;9.162;2023-08-01T00:28:32;19.40;97.80
6948;DHT22;3513;47.664;9.162;2023-08-01T00:31:05;19.40;97.90
6948;DHT22;3513;47.664;9.162;2023-08-01T00:33:31;19.40;97.70
6948;DHT22;3513;47.664;9.162;2023-08-01T00:35:56;19.40;97.90
6948;DHT22;3513;47.664;9.162;2023-08-01T00:38:22;19.30;98.00
6948;DHT22;3513;47.664;9.162;2023-08-01T00:40:47;19.30;98.40
6948;DHT22;3513;47.664;9.162;2023-08-01T00:43:13;19.30;98.90
6948;DHT22;3513;47.664;9.162;2023-08-01T00:45:39;19.30;99.30
6948;DHT22;3513;47.664;9.162;2023-08-01T00:48:05;19.20;99.50
6948;DHT22;3513;47.664;9.162;2023-08-01T00:50:30;19.20;99.30
6948;DHT22;3513;47.664;9.162;2023-08-01T00:52:56;19.20;98.90
6948;DHT22;3513;47.664;9.162;2023-08-01T00:55:22;19.20;99.00
6948;DHT22;3513;47.664;9.162;2023-08-01T00:57:48;19.20;98.90
6948;DHT22;3513;47.664;9.162;2023-08-01T01:00:14;19.10;98.70
6948;DHT22;3513;47.664;9.162;2023-08-01T01:02:40;19.10;98.70
6948;DHT22;3513;47.664;9.162;2023-08-01T01:05:06;19.10;98.70
6948;DHT22;3513;47.664;9.162;2023-08-01T01:07:31;19.10;98.70
6948;DHT22;3513;47.664;9.162;2023-08-01T01:09:58;19.00;98.60
6948;DHT22;3513;47.664;9.162;2023-08-01T01:12:24;19.00;98.70
6948;DHT22;3513;47.664;9.162;2023-08-01T01:14:49;19.00;98.70
6948;DHT22;3513;47.664;9.162;2023-08-01T01:17:15;19.00;98.80
6948;DHT22;3513;47.664;9.162;2023-08-01T01:19:40;19.10;98.90
6948;DHT22;3513;47.664;9.162;2023-08-01T01:22:07;19.10;98.90
6948;DHT22;3513;47.664;9.162;2023-08-01T01:24:35;19.10;98.90
6948;DHT22;3513;47.664;9.162;2023-08-01T01:27:01;19.10;98.70
6948;DHT22;3513;47.664;9.162;2023-08-01T01:29:30;19.10;98.60
6948;DHT22;3513;47.664;9.162;2023-08-01T01:31:57;19.10;98.50
6948;DHT22;3513;47.664;9.162;2023-08-01T01:34:23;19.10;98.50
6948;DHT22;3513;47.664;9.162;2023-08-01T01:36:49;19.10;98.50
6948;DHT22;3513;47.664;9.162;2023-08-01T01:39:14;19.10;98.70
6948;DHT22;3513;47.664;9.162;2023-08-01T01:41:40;19.20;98.80
6948;DHT22;3513;47.664;9.162;2023-08-01T01:44:06;19.10;99.00
6948;DHT22;3513;47.664;9.162;2023-08-01T01:46:31;19.20;99.30
6948;DHT22;3513;47.664;9.162;2023-08-01T01:48:57;19.20;99.80
6948;DHT22;3513;47.664;9.162;2023-08-01T01:51:26;19.20;99.70
6948;DHT22;3513;47.664;9.162;2023-08-01T01:53:52;19.20;99.80
6948;DHT22;3513;47.664;9.162;2023-08-01T01:56:18;19.20;99.80
6948;DHT22;3513;47.664;9.162;2023-08-01T01:58:43;19.20;99.80
6948;DHT22;3513;47.664;9.162;2023-08-01T02:01:09;19.20;99.70
6948;DHT22;3513;47.664;9.162;2023-08-01T02:03:34;19.30;99.80
6948;DHT22;3513;47.664;9.162;2023-08-01T02:06:01;19.20;99.70
6948;DHT22;3513;47.664;9.162;2023-08-01T02:08:29;19.20;99.90
6948;DHT22;3513;47.664;9.162;2023-08-01T02:10:54;19.20;99.20
6948;DHT22;3513;47.664;9.162;2023-08-01T02:13:26;19.20;99.20
6948;DHT22;3513;47.664;9.162;2023-08-01T02:15:53;19.20;99.80
6948;DHT22;3513;47.664;9.162;2023-08-01T02:18:18;19.20;99.50
6948;DHT22;3513;47.664;9.162;2023-08-01T02:20:44;19.10;99.50
6948;DHT22;3513;47.664;9.162;2023-08-01T02:23:09;19.10;99.60
6948;DHT22;3513;47.664;9.162;2023-08-01T02:25:39;19.10;99.50
6948;DHT22;3513;47.664;9.162;2023-08-01T02:28:05;19.10;99.70
6948;DHT22;3513;47.664;9.162;2023-08-01T02:30:31;19.00;99.80
6948;DHT22;3513;47.664;9.162;2023-08-01T02:32:56;19.00;99.90
6948;DHT22;3513;47.664;9.162;2023-08-01T02:35:22;18.90;99.90
6948;DHT22;3513;47.664;9.162;2023-08-01T02:37:47;18.90;99.90
6948;DHT22;3513;47.664;9.162;2023-08-01T02:40:13;18.90;99.90
6948;DHT22;3513;47.664;9.162;2023-08-01T02:42:38;18.80;99.90
6948;DHT22;3513;47.664;9.162;2023-08-01T02:45:05;18.70;99.90
6948;DHT22;3513;47.664;9.162;2023-08-01T02:47:30;18.70;99.90
6948;DHT22;3513;47.664;9.162;2023-08-01T02:49:56;18.70;99.90
6948;DHT22;3513;47.664;9.162;2023-08-01T02:52:21;18.70;99.90
6948;DHT22;3513;47.664;9.162;2023-08-01T02:54:47;18.70;99.90
6948;DHT22;3513;47.664;9.162;2023-08-01T02:57:12;18.70;99.90
6948;DHT22;3513;47.664;9.162;2023-08-01T02:59:38;18.60;99.90
6948;DHT22;3513;47.664;9.162;2023-08-01T03:02:04;18.70;99.90
6948;DHT22;3513;47.664;9.162;2023-08-01T03:04:30;18.70;99.90
6948;DHT22;3513;47.664;9.162;2023-08-01T03:06:55;18.90;99.90
6948;DHT22;3513;47.664;9.162;2023-08-01T03:09:21;19.00;99.60
6948;DHT22;3513;47.664;9.162;2023-08-01T03:11:46;19.20;98.90
6948;DHT22;3513;47.664;9.162;2023-08-01T03:14:12;19.20;99.20
6948;DHT22;3513;47.664;9.162;2023-08-01T03:16:37;19.30;99.60
6948;DHT22;3513;47.664;9.162;2023-08-01T03:19:03;19.20;99.70
6948;DHT22;3513;47.664;9.162;2023-08-01T03:21:32;19.10;99.90
6948;DHT22;3513;47.664;9.162;2023-08-01T03:23:58;19.00;99.90
6948;DHT22;3513;47.664;9.162;2023-08-01T03:26:24;18.90;99.90
6948;DHT22;3513;47.664;9.162;2023-08-01T03:28:50;18.90;99.90
6948;DHT22;3513;47.664;9.162;2023-08-01T03:31:15;18.80;99.90
6948;DHT22;3513;47.664;9.162;2023-08-01T03:33:41;18.70;99.90
6948;DHT22;3513;47.664;9.162;2023-08-01T03:36:07;18.70;99.90
6948;DHT22;3513;47.664;9.162;2023-08-01T03:38:32;18.70;99.90
6948;DHT22;3513;47.664;9.162;2023-08-01T03:40:58;18.70;99.90
6948;DHT22;3513;47.664;9.162;2023-08-01T03:43:23;18.70;99.90
6948;DHT22;3513;47.664;9.162;2023-08-01T03:45:51;18.80;99.90
6948;DHT22;3513;47.664;9.162;2023-08-01T03:48:16;18.80;99.40
6948;DHT22;3513;47.664;9.162;2023-08-01T03:50:42;19.10;97.10
6948;DHT22;3513;47.664;9.162;2023-08-01T03:53:08;19.30;96.40
6948;DHT22;3513;47.664;9.162;2023-08-01T03:55:33;19.40;96.00
6948;DHT22;3513;47.664;9.162;2023-08-01T03:57:59;19.40;95.40
6948;DHT22;3513;47.664;9.162;2023-08-01T04:00:24;19.50;95.80
6948;DHT22;3513;47.664;9.162;2023-08-01T04:02:50;19.60;94.70
6948;DHT22;3513;47.664;9.162;2023-08-01T04:05:15;20.10;95.00
6948;DHT22;3513;47.664;9.162;2023-08-01T04:07:41;19.60;94.50
6948;DHT22;3513;47.664;9.162;2023-08-01T04:10:07;19.80;93.90
6948;DHT22;3513;47.664;9.162;2023-08-01T04:12:33;19.80;93.80
6948;DHT22;3513;47.664;9.162;2023-08-01T04:15:00;19.80;93.30
6948;DHT22;3513;47.664;9.162;2023-08-01T04:17:26;19.90;93.10
6948;DHT22;3513;47.664;9.162;2023-08-01T04:19:51;19.90;92.90
6948;DHT22;3513;47.664;9.162;2023-08-01T04:22:17;19.90;92.90
6948;DHT22;3513;47.664;9.162;2023-08-01T04:24:42;19.90;92.70
6948;DHT22;3513;47.664;9.162;2023-08-01T04:27:08;20.00;92.80
6948;DHT22;3513;47.664;9.162;2023-08-01T04:29:34;20.00;93.00
6948;DHT22;3513;47.664;9.162;2023-08-01T04:32:00;20.00;93.10
6948;DHT22;3513;47.664;9.162;2023-08-01T04:34:26;20.00;92.90
6948;DHT22;3513;47.664;9.162;2023-08-01T04:36:51;20.00;93.30
6948;DHT22;3513;47.664;9.162;2023-08-01T04:39:17;19.90;93.80
6948;DHT22;3513;47.664;9.162;2023-08-01T04:41:42;19.90;93.60
6948;DHT22;3513;47.664;9.162;2023-08-01T04:44:08;19.90;93.50
6948;DHT22;3513;47.664;9.162;2023-08-01T04:46:33;19.90;93.40
6948;DHT22;3513;47.664;9.162;2023-08-01T04:48:59;19.80;93.20
6948;DHT22;3513;47.664;9.162;2023-08-01T04:51:25;19.80;93.30
6948;DHT22;3513;47.664;9.162;2023-08-01T04:53:50;19.80;92.60
6948;DHT22;3513;47.664;9.162;2023-08-01T04:56:16;19.80;92.50
6948;DHT22;3513;47.664;9.162;2023-08-01T04:58:42;19.90;92.30
6948;DHT22;3513;47.664;9.162;2023-08-01T05:01:07;19.90;91.80
6948;DHT22;3513;47.664;9.162;2023-08-01T05:03:33;19.90;91.80
6948;DHT22;3513;47.664;9.162;2023-08-01T05:05:58;19.90;91.60
6948;DHT22;3513;47.664;9.162;2023-08-01T05:08:24;19.90;91.10
6948;DHT22;3513;47.664;9.162;2023-08-01T05:10:49;19.90;90.80
6948;DHT22;3513;47.664;9.162;2023-08-01T05:13:15;19.90;90.90
6948;DHT22;3513;47.664;9.162;2023-08-01T05:15:44;19.90;90.60
6948;DHT22;3513;47.664;9.162;2023-08-01T05:18:10;19.90;91.00
6948;DHT22;3513;47.664;9.162;2023-08-01T05:20:35;19.80;91.80
6948;DHT22;3513;47.664;9.162;2023-08-01T05:23:01;19.80;92.00
6948;DHT22;3513;47.664;9.162;2023-08-01T05:25:27;19.60;92.60
6948;DHT22;3513;47.664;9.162;2023-08-01T05:27:52;19.50;93.50
6948;DHT22;3513;47.664;9.162;2023-08-01T05:30:18;19.40;94.00
6948;DHT22;3513;47.664;9.162;2023-08-01T05:32:43;19.30;94.30
6948;DHT22;3513;47.664;9.162;2023-08-01T05:35:10;19.20;94.70
6948;DHT22;3513;47.664;9.162;2023-08-01T05:37:36;19.20;94.70
6948;DHT22;3513;47.664;9.162;2023-08-01T05:40:05;19.10;94.80
6948;DHT22;3513;47.664;9.162;2023-08-01T05:42:31;19.10;95.30
6948;DHT22;3513;47.664;9.162;2023-08-01T05:44:56;19.00;95.70
6948;DHT22;3513;47.664;9.162;2023-08-01T05:47:22;19.00;95.20
6948;DHT22;3513;47.664;9.162;2023-08-01T05:49:50;19.00;95.60
6948;DHT22;3513;47.664;9.162;2023-08-01T05:52:15;19.00;95.50
6948;DHT22;3513;47.664;9.162;2023-08-01T05:54:41;19.00;95.30
6948;DHT22;3513;47.664;9.162;2023-08-01T05:57:07;19.00;95.50
6948;DHT22;3513;47.664;9.162;2023-08-01T05:59:33;19.00;95.60
6948;DHT22;3513;47.664;9.162;2023-08-01T06:01:59;19.00;95.60
6948;DHT22;3513;47.664;9.162;2023-08-01T06:04:25;19.00;95.40
6948;DHT22;3513;47.664;9.162;2023-08-01T06:06:50;19.00;95.20
6948;DHT22;3513;47.664;9.162;2023-08-01T06:09:16;19.00;95.20
6948;DHT22;3513;47.664;9.162;2023-08-01T06:11:41;19.00;95.80
6948;DHT22;3513;47.664;9.162;2023-08-01T06:14:08;19.00;96.40
6948;DHT22;3513;47.664;9.162;2023-08-01T06:16:34;18.90;96.20
6948;DHT22;3513;47.664;9.162;2023-08-01T06:18:59;18.80;97.10
6948;DHT22;3513;47.664;9.162;2023-08-01T06:21:25;18.70;97.70
6948;DHT22;3513;47.664;9.162;2023-08-01T06:23:51;18.60;97.90
6948;DHT22;3513;47.664;9.162;2023-08-01T06:26:16;18.60;98.20
6948;DHT22;3513;47.664;9.162;2023-08-01T06:28:42;18.50;98.40
6948;DHT22;3513;47.664;9.162;2023-08-01T06:31:08;18.50;98.60
6948;DHT22;3513;47.664;9.162;2023-08-01T06:33:33;18.50;98.80
6948;DHT22;3513;47.664;9.162;2023-08-01T06:35:59;18.50;99.10
6948;DHT22;3513;47.664;9.162;2023-08-01T06:38:24;18.50;99.50
6948;DHT22;3513;47.664;9.162;2023-08-01T06:40:50;18.40;99.90
6948;DHT22;3513;47.664;9.162;2023-08-01T06:43:15;18.40;99.90
6948;DHT22;3513;47.664;9.162;2023-08-01T06:45:41;18.30;99.90
6948;DHT22;3513;47.664;9.162;2023-08-01T06:48:06;18.30;99.90
6948;DHT22;3513;47.664;9.162;2023-08-01T06:50:33;18.30;99.90
6948;DHT22;3513;47.664;9.162;2023-08-01T06:52:59;18.40;99.90
6948;DHT22;3513;47.664;9.162;2023-08-01T06:55:26;18.40;99.90
6948;DHT22;3513;47.664;9.162;2023-08-01T06:57:51;18.40;99.90
6948;DHT22;3513;47.664;9.162;2023-08-01T07:00:17;18.40;99.90
6948;DHT22;3513;47.664;9.162;2023-08-01T07:02:43;18.30;99.90
6948;DHT22;3513;47.664;9.162;2023-08-01T07:05:08;18.30;99.90
6948;DHT22;3513;47.664;9.162;2023-08-01T07:07:34;18.30;99.90
6948;DHT22;3513;47.664;9.162;2023-08-01T07:10:00;18.20;99.90
6948;DHT22;3513;47.664;9.162;2023-08-01T07:12:25;18.30;99.90
6948;DHT22;3513;47.664;9.162;2023-08-01T07:14:51;18.20;99.90
6948;DHT22;3513;47.664;9.162;2023-08-01T07:17:16;18.20;99.90
6948;DHT22;3513;47.664;9.162;2023-08-01T07:19:43;18.10;99.90
6948;DHT22;3513;47.664;9.162;2023-08-01T07:22:08;18.10;99.90
6948;DHT22;3513;47.664;9.162;2023-08-01T07:24:34;18.10;99.90
6948;DHT22;3513;47.664;9.162;2023-08-01T07:27:00;18.10;99.90
6948;DHT22;3513;47.664;9.162;2023-08-01T07:29:25;18.00;99.90
6948;DHT22;3513;47.664;9.162;2023-08-01T07:31:51;18.00;99.90
6948;DHT22;3513;47.664;9.162;2023-08-01T07:34:16;18.00;99.90
6948;DHT22;3513;47.664;9.162;2023-08-01T07:36:42;18.20;99.90
6948;DHT22;3513;47.664;9.162;2023-08-01T07:39:07;18.30;99.90
6948;DHT22;3513;47.664;9.162;2023-08-01T07:41:33;18.40;99.90
6948;DHT22;3513;47.664;9.162;2023-08-01T07:44:01;18.40;99.90
6948;DHT22;3513;47.664;9.162;2023-08-01T07:46:31;18.40;99.90
6948;DHT22;3513;47.664;9.162;2023-08-01T07:48:57;18.50;99.90
6948;DHT22;3513;47.664;9.162;2023-08-01T07:51:22;18.50;99.90
6948;DHT22;3513;47.664;9.162;2023-08-01T07:53:48;18.50;99.90
6948;DHT22;3513;47.664;9.162;2023-08-01T07:56:16;18.60;99.90
6948;DHT22;3513;47.664;9.162;2023-08-01T07:58:41;18.60;99.90
6948;DHT22;3513;47.664;9.162;2023-08-01T08:01:07;18.60;99.90
6948;DHT22;3513;47.664;9.162;2023-08-01T08:03:32;18.70;99.90
6948;DHT22;3513;47.664;9.162;2023-08-01T08:05:58;18.60;99.90
6948;DHT22;3513;47.664;9.162;2023-08-01T08:08:24;18.60;99.90
6948;DHT22;3513;47.664;9.162;2023-08-01T08:10:49;18.60;99.90
6948;DHT22;3513;47.664;9.162;2023-08-01T08:13:15;18.70;99.90
6948;DHT22;3513;47.664;9.162;2023-08-01T08:15:41;18.70;99.90
6948;DHT22;3513;47.664;9.162;2023-08-01T08:18:07;18.70;99.90
6948;DHT22;3513;47.664;9.162;2023-08-01T08:20:41;18.80;99.90
6948;DHT22;3513;47.664;9.162;2023-08-01T08:23:08;18.80;99.90
6948;DHT22;3513;47.664;9.162;2023-08-01T08:25:33;18.80;99.90
6948;DHT22;3513;47.664;9.162;2023-08-01T08:27:59;18.80;99.90
6948;DHT22;3513;47.664;9.162;2023-08-01T08:30:25;18.70;99.90
6948;DHT22;3513;47.664;9.162;2023-08-01T08:32:50;18.70;99.90
6948;DHT22;3513;47.664;9.162;2023-08-01T08:35:16;18.70;99.90
6948;DHT22;3513;47.664;9.162;2023-08-01T08:37:41;18.60;99.90
6948;DHT22;3513;47.664;9.162;2023-08-01T08:40:07;18.60;99.90
6948;DHT22;3513;47.664;9.162;2023-08-01T08:42:34;18.70;99.90
6948;DHT22;3513;47.664;9.162;2023-08-01T08:45:01;18.60;99.90
6948;DHT22;3513;47.664;9.162;2023-08-01T08:47:31;18.50;99.90
6948;DHT22;3513;47.664;9.162;2023-08-01T08:50:00;18.30;99.90
6948;DHT22;3513;47.664;9.162;2023-08-01T08:52:26;18.20;99.90
6948;DHT22;3513;47.664;9.162;2023-08-01T08:54:52;18.00;99.90
6948;DHT22;3513;47.664;9.162;2023-08-01T08:57:19;18.00;99.90
6948;DHT22;3513;47.664;9.162;2023-08-01T08:59:46;17.80;99.90
6948;DHT22;3513;47.664;9.162;2023-08-01T09:02:13;17.70;99.90
6948;DHT22;3513;47.664;9.162;2023-08-01T09:04:39;17.60;99.90
6948;DHT22;3513;47.664;9.162;2023-08-01T09:07:08;17.40;99.90
6948;DHT22;3513;47.664;9.162;2023-08-01T09:09:34;17.40;99.90
6948;DHT22;3513;47.664;9.162;2023-08-01T09:12:00;17.30;99.90
6948;DHT22;3513;47.664;9.162;2023-08-01T09:14:26;17.30;99.90
6948;DHT22;3513;47.664;9.162;2023-08-01T09:16:51;17.20;99.90
6948;DHT22;3513;47.664;9.162;2023-08-01T09:19:23;17.20;99.90
6948;DHT22;3513;47.664;9.162;2023-08-01T09:21:49;17.20;99.90
6948;DHT22;3513;47.664;9.162;2023-08-01T09:24:19;17.20;99.90
6948;DHT22;3513;47.664;9.162;2023-08-01T09:26:45;17.10;99.90
6948;DHT22;3513;47.664;9.162;2023-08-01T09:29:11;17.10;99.90
6948;DHT22;3513;47.664;9.162;2023-08-01T09:31:40;17.10;99.90
6948;DHT22;3513;47.664;9.162;2023-08-01T09:34:17;17.10;99.90
6948;DHT22;3513;47.664;9.162;2023-08-01T09:36:42;17.10;99.90
6948;DHT22;3513;47.664;9.162;2023-08-01T09:39:08;17.10;99.90
6948;DHT22;3513;47.664;9.162;2023-08-01T09:41:34;17.10;99.90
6948;DHT22;3513;47.664;9.162;2023-08-01T09:43:59;17.00;99.90
6948;DHT22;3513;47.664;9.162;2023-08-01T09:46:25;16.90;99.90
6948;DHT22;3513;47.664;9.162;2023-08-01T09:48:51;16.80;99.90
6948;DHT22;3513;47.664;9.162;2023-08-01T09:51:18;16.70;99.90
6948;DHT22;3513;47.664;9.162;2023-08-01T09:56:18;16.70;99.90
6948;DHT22;3513;47.664;9.162;2023-08-01T09:58:46;16.80;99.90
6948;DHT22;3513;47.664;9.162;2023-08-01T10:01:14;16.80;99.90
6948;DHT22;3513;47.664;9.162;2023-08-01T10:03:45;16.90;99.90
6948;DHT22;3513;47.664;9.162;2023-08-01T10:06:17;17.00;99.90
6948;DHT22;3513;47.664;9.162;2023-08-01T10:08:44;17.10;99.90
6948;DHT22;3513;47.664;9.162;2023-08-01T10:11:12;17.30;99.90
6948;DHT22;3513;47.664;9.162;2023-08-01T10:13:37;17.40;99.90
6948;DHT22;3513;47.664;9.162;2023-08-01T10:16:03;17.50;99.90
6948;DHT22;3513;47.664;9.162;2023-08-01T10:18:30;17.70;99.90
6948;DHT22;3513;47.664;9.162;2023-08-01T10:20:57;17.90;99.90
6948;DHT22;3513;47.664;9.162;2023-08-01T10:23:23;18.00;99.90
6948;DHT22;3513;47.664;9.162;2023-08-01T10:25:49;18.10;99.90
6948;DHT22;3513;47.664;9.162;2023-08-01T10:28:15;18.10;99.90
6948;DHT22;3513;47.664;9.162;2023-08-01T10:30:41;18.30;99.90
6948;DHT22;3513;47.664;9.162;2023-08-01T10:33:06;18.40;99.90
6948;DHT22;3513;47.664;9.162;2023-08-01T10:35:38;18.60;99.90
6948;DHT22;3513;47.664;9.162;2023-08-01T10:38:06;18.70;99.90
6948;DHT22;3513;47.664;9.162;2023-08-01T10:40:39;18.70;99.90
6948;DHT22;3513;47.664;9.162;2023-08-01T10:43:06;18.70;99.90
6948;DHT22;3513;47.664;9.162;2023-08-01T10:45:32;18.80;99.90
6948;DHT22;3513;47.664;9.162;2023-08-01T10:48:10;18.90;99.90
6948;DHT22;3513;47.664;9.162;2023-08-01T10:50:37;18.90;99.90
6948;DHT22;3513;47.664;9.162;2023-08-01T10:53:04;19.10;99.90
6948;DHT22;3513;47.664;9.162;2023-08-01T10:55:44;19.10;99.90
6948;DHT22;3513;47.664;9.162;2023-08-01T10:58:10;19.20;99.90
6948;DHT22;3513;47.664;9.162;2023-08-01T11:00:36;19.30;99.90
6948;DHT22;3513;47.664;9.162;2023-08-01T11:03:02;19.40;99.90
6948;DHT22;3513;47.664;9.162;2023-08-01T11:05:28;19.50;99.90
6948;DHT22;3513;47.664;9.162;2023-08-01T11:08:00;19.90;99.90
6948;DHT22;3513;47.664;9.162;2023-08-01T11:10:30;19.50;99.90
6948;DHT22;3513;47.664;9.162;2023-08-01T11:12:56;19.60;99.90
6948;DHT22;3513;47.664;9.162;2023-08-01T11:15:23;19.60;99.70
6948;DHT22;3513;47.664;9.162;2023-08-01T11:17:50;19.50;99.90
6948;DHT22;3513;47.664;9.162;2023-08-01T11:20:17;19.50;99.50
6948;DHT22;3513;47.664;9.162;2023-08-01T11:25:30;19.60;99.90
6948;DHT22;3513;47.664;9.162;2023-08-01T11:27:57;19.70;99.90
6948;DHT22;3513;47.664;9.162;2023-08-01T11:30:30;19.70;99.90
6948;DHT22;3513;47.664;9.162;2023-08-01T11:32:56;19.80;99.90
6948;DHT22;3513;47.664;9.162;2023-08-01T11:35:22;19.70;99.80
6948;DHT22;3513;47.664;9.162;2023-08-01T11:37:50;19.70;99.50
6948;DHT22;3513;47.664;9.162;2023-08-01T11:40:16;19.70;99.90
6948;DHT22;3513;47.664;9.162;2023-08-01T11:42:41;19.70;99.90
6948;DHT22;3513;47.664;9.162;2023-08-01T11:45:12;19.70;99.90
6948;DHT22;3513;47.664;9.162;2023-08-01T11:47:44;19.80;99.70
6948;DHT22;3513;47.664;9.162;2023-08-01T11:50:10;19.80;99.10
6948;DHT22;3513;47.664;9.162;2023-08-01T11:52:36;19.90;99.60
6948;DHT22;3513;47.664;9.162;2023-08-01T11:55:01;20.10;99.00
6948;DHT22;3513;47.664;9.162;2023-08-01T11:57:27;20.10;98.80
6948;DHT22;3513;47.664;9.162;2023-08-01T11:59:55;20.00;97.70
6948;DHT22;3513;47.664;9.162;2023-08-01T12:02:22;20.00;96.60
6948;DHT22;3513;47.664;9.162;2023-08-01T12:04:48;20.00;97.10
6948;DHT22;3513;47.664;9.162;2023-08-01T12:07:15;20.10;97.30
6948;DHT22;3513;47.664;9.162;2023-08-01T12:09:41;20.20;96.60
6948;DHT22;3513;47.664;9.162;2023-08-01T12:12:08;20.10;96.40
6948;DHT22;3513;47.664;9.162;2023-08-01T12:14:39;20.10;97.20
6948;DHT22;3513;47.664;9.162;2023-08-01T12:17:05;20.20;97.10
6948;DHT22;3513;47.664;9.162;2023-08-01T12:19:31;20.30;96.80
6948;DHT22;3513;47.664;9.162;2023-08-01T12:21:59;20.40;96.30
6948;DHT22;3513;47.664;9.162;2023-08-01T12:24:24;20.40;97.00
6948;DHT22;3513;47.664;9.162;2023-08-01T12:26:50;20.60;95.80
6948;DHT22;3513;47.664;9.162;2023-08-01T12:29:15;20.70;95.90
6948;DHT22;3513;47.664;9.162;2023-08-01T12:31:41;20.70;95.30
6948;DHT22;3513;47.664;9.162;2023-08-01T12:34:07;20.80;95.00
6948;DHT22;3513;47.664;9.162;2023-08-01T12:36:32;20.70;94.40
6948;DHT22;3513;47.664;9.162;2023-08-01T12:38:58;20.80;95.40
6948;DHT22;3513;47.664;9.162;2023-08-01T12:41:24;20.90;95.00
6948;DHT22;3513;47.664;9.162;2023-08-01T12:43:50;21.00;93.40
6948;DHT22;3513;47.664;9.162;2023-08-01T12:46:15;21.00;94.00
6948;DHT22;3513;47.664;9.162;2023-08-01T12:48:41;21.10;92.60
6948;DHT22;3513;47.664;9.162;2023-08-01T12:51:07;21.00;92.60
6948;DHT22;3513;47.664;9.162;2023-08-01T12:53:33;21.10;93.20
6948;DHT22;3513;47.664;9.162;2023-08-01T12:55:58;21.20;92.20
6948;DHT22;3513;47.664;9.162;2023-08-01T12:58:24;21.20;90.90
6948;DHT22;3513;47.664;9.162;2023-08-01T13:00:50;21.30;92.10
6948;DHT22;3513;47.664;9.162;2023-08-01T13:03:15;21.30;91.60
6948;DHT22;3513;47.664;9.162;2023-08-01T13:05:42;21.20;91.80
6948;DHT22;3513;47.664;9.162;2023-08-01T13:08:08;21.10;91.60
6948;DHT22;3513;47.664;9.162;2023-08-01T13:10:35;20.90;91.80
6948;DHT22;3513;47.664;9.162;2023-08-01T13:13:01;20.70;92.00
6948;DHT22;3513;47.664;9.162;2023-08-01T13:15:28;20.50;92.70
6948;DHT22;3513;47.664;9.162;2023-08-01T13:17:54;20.40;93.40
6948;DHT22;3513;47.664;9.162;2023-08-01T13:20:20;20.40;93.60
6948;DHT22;3513;47.664;9.162;2023-08-01T13:22:46;20.30;94.10
6948;DHT22;3513;47.664;9.162;2023-08-01T13:25:15;20.20;94.70
6948;DHT22;3513;47.664;9.162;2023-08-01T13:27:42;20.20;95.30
6948;DHT22;3513;47.664;9.162;2023-08-01T13:30:08;20.30;95.30
6948;DHT22;3513;47.664;9.162;2023-08-01T13:32:34;20.30;94.50
6948;DHT22;3513;47.664;9.162;2023-08-01T13:35:00;20.40;94.20
6948;DHT22;3513;47.664;9.162;2023-08-01T13:37:26;20.60;95.20
6948;DHT22;3513;47.664;9.162;2023-08-01T13:39:51;20.60;96.20
6948;DHT22;3513;47.664;9.162;2023-08-01T13:42:17;20.70;96.50
6948;DHT22;3513;47.664;9.162;2023-08-01T13:44:42;20.70;96.00
6948;DHT22;3513;47.664;9.162;2023-08-01T13:47:08;20.70;96.60
6948;DHT22;3513;47.664;9.162;2023-08-01T13:49:34;20.80;96.60
6948;DHT22;3513;47.664;9.162;2023-08-01T13:52:00;20.90;96.70
6948;DHT22;3513;47.664;9.162;2023-08-01T13:54:26;21.00;96.30
6948;DHT22;3513;47.664;9.162;2023-08-01T13:56:51;21.00;96.30
6948;DHT22;3513;47.664;9.162;2023-08-01T13:59:18;21.30;96.50
6948;DHT22;3513;47.664;9.162;2023-08-01T14:01:45;21.40;95.20
6948;DHT22;3513;47.664;9.162;2023-08-01T14:04:10;21.40;95.40
6948;DHT22;3513;47.664;9.162;2023-08-01T14:06:39;21.30;95.60
6948;DHT22;3513;47.664;9.162;2023-08-01T14:09:05;21.00;96.10
6948;DHT22;3513;47.664;9.162;2023-08-01T14:11:30;20.70;97.00
6948;DHT22;3513;47.664;9.162;2023-08-01T14:13:56;20.50;98.20
6948;DHT22;3513;47.664;9.162;2023-08-01T14:16:22;20.90;99.10
6948;DHT22;3513;47.664;9.162;2023-08-01T14:18:48;21.60;95.80
6948;DHT22;3513;47.664;9.162;2023-08-01T14:21:13;21.90;95.40
6948;DHT22;3513;47.664;9.162;2023-08-01T14:23:39;22.20;94.80
6948;DHT22;3513;47.664;9.162;2023-08-01T14:26:07;22.30;94.20
6948;DHT22;3513;47.664;9.162;2023-08-01T14:28:32;22.30;94.50
6948;DHT22;3513;47.664;9.162;2023-08-01T14:31:01;22.20;92.70
6948;DHT22;3513;47.664;9.162;2023-08-01T14:33:27;21.90;93.10
6948;DHT22;3513;47.664;9.162;2023-08-01T14:35:53;21.70;93.80
6948;DHT22;3513;47.664;9.162;2023-08-01T14:38:19;21.50;94.30
6948;DHT22;3513;47.664;9.162;2023-08-01T14:40:45;21.20;95.20
6948;DHT22;3513;47.664;9.162;2023-08-01T14:43:10;20.60;98.60
6948;DHT22;3513;47.664;9.162;2023-08-01T14:45:39;20.10;99.90
6948;DHT22;3513;47.664;9.162;2023-08-01T14:48:06;19.80;99.90
6948;DHT22;3513;47.664;9.162;2023-08-01T14:50:32;19.60;99.90
6948;DHT22;3513;47.664;9.162;2023-08-01T14:52:57;19.40;99.90
6948;DHT22;3513;47.664;9.162;2023-08-01T14:55:23;19.40;99.90
6948;DHT22;3513;47.664;9.162;2023-08-01T14:57:48;19.50;99.90
6948;DHT22;3513;47.664;9.162;2023-08-01T15:00:15;19.50;99.90
6948;DHT22;3513;47.664;9.162;2023-08-01T15:02:41;19.40;99.90
6948;DHT22;3513;47.664;9.162;2023-08-01T15:05:07;19.40;99.90
6948;DHT22;3513;47.664;9.162;2023-08-01T15:07:32;19.40;99.90
6948;DHT22;3513;47.664;9.162;2023-08-01T15:09:58;19.50;99.90
6948;DHT22;3513;47.664;9.162;2023-08-01T15:12:23;19.90;99.90
6948;DHT22;3513;47.664;9.162;2023-08-01T15:14:53;20.40;99.90
6948;DHT22;3513;47.664;9.162;2023-08-01T15:17:19;20.60;99.40
6948;DHT22;3513;47.664;9.162;2023-08-01T15:19:45;20.50;99.00
6948;DHT22;3513;47.664;9.162;2023-08-01T15:22:16;20.70;99.20
6948;DHT22;3513;47.664;9.162;2023-08-01T15:24:42;21.00;98.10
6948;DHT22;3513;47.664;9.162;2023-08-01T15:27:07;21.10;96.90
6948;DHT22;3513;47.664;9.162;2023-08-01T15:29:33;20.70;97.20
6948;DHT22;3513;47.664;9.162;2023-08-01T15:31:59;20.50;97.60
6948;DHT22;3513;47.664;9.162;2023-08-01T15:34:24;20.40;97.40
6948;DHT22;3513;47.664;9.162;2023-08-01T15:36:50;20.10;97.20
6948;DHT22;3513;47.664;9.162;2023-08-01T15:39:16;20.10;97.80
6948;DHT22;3513;47.664;9.162;2023-08-01T15:41:42;20.40;97.00
6948;DHT22;3513;47.664;9.162;2023-08-01T15:44:07;20.60;96.70
6948;DHT22;3513;47.664;9.162;2023-08-01T15:46:33;20.50;96.30
6948;DHT22;3513;47.664;9.162;2023-08-01T15:48:59;20.30;96.20
6948;DHT22;3513;47.664;9.162;2023-08-01T15:51:24;20.30;97.00
6948;DHT22;3513;47.664;9.162;2023-08-01T15:53:50;20.20;96.80
6948;DHT22;3513;47.664;9.162;2023-08-01T15:56:15;20.50;97.20
6948;DHT22;3513;47.664;9.162;2023-08-01T15:58:41;21.00;95.90
6948;DHT22;3513;47.664;9.162;2023-08-01T16:01:07;21.20;95.90